createdAt,value
2018-06-08T00:01:28.899Z,3.37
2018-06-08T00:03:57.424Z,4.27
2018-06-08T00:06:25.841Z,4.60
2018-06-08T00:08:54.186Z,4.10
2018-06-08T00:11:22.554Z,4.47
2018-06-08T00:13:50.883Z,4.10
2018-06-08T00:16:19.453Z,5.30
2018-06-08T00:18:47.812Z,4.43
2018-06-08T00:21:16.132Z,4.93
2018-06-08T00:23:44.500Z,4.40
2018-06-08T00:26:12.936Z,4.00
2018-06-08T00:28:41.534Z,4.70
2018-06-08T00:31:09.995Z,4.23
2018-06-08T00:33:38.630Z,4.87
2018-06-08T00:36:07.031Z,5.07
2018-06-08T00:38:35.438Z,5.23
2018-06-08T00:41:03.828Z,4.67
2018-06-08T00:43:32.169Z,5.00
2018-06-08T00:46:00.496Z,4.70
2018-06-08T00:48:28.807Z,4.93
2018-06-08T00:50:57.179Z,4.37
2018-06-08T00:53:25.545Z,5.63
2018-06-08T00:55:53.908Z,4.83
2018-06-08T00:58:22.317Z,4.70
2018-06-08T01:00:50.640Z,5.20
2018-06-08T01:03:19.027Z,4.53
2018-06-08T01:05:47.398Z,4.87
2018-06-08T01:08:15.841Z,4.10
2018-06-08T01:10:44.135Z,4.93
2018-06-08T01:13:13.664Z,5.77
2018-06-08T01:15:42.480Z,5.77
2018-06-08T01:18:10.976Z,5.53
2018-06-08T01:20:39.652Z,5.03
2018-06-08T01:23:08.168Z,5.30
2018-06-08T01:25:36.641Z,6.13
2018-06-08T01:28:05.052Z,5.97
2018-06-08T01:30:33.433Z,5.93
2018-06-08T01:33:02.032Z,5.57
2018-06-08T01:35:30.436Z,5.43
2018-06-08T01:37:58.772Z,5.90
2018-06-08T01:40:27.105Z,5.57
2018-06-08T01:42:55.692Z,5.63
2018-06-08T01:45:24.047Z,5.47
2018-06-08T01:47:52.609Z,5.97
2018-06-08T01:50:20.957Z,5.50
2018-06-08T01:52:49.320Z,6.60
2018-06-08T01:55:17.680Z,5.50
2018-06-08T01:57:46.132Z,4.97
2018-06-08T02:00:14.587Z,5.20
2018-06-08T02:02:43.292Z,5.27
2018-06-08T02:05:11.703Z,5.50
2018-06-08T02:07:40.494Z,5.00
2018-06-08T02:10:09.033Z,5.43
2018-06-08T02:12:37.574Z,4.80
2018-06-08T02:15:06.024Z,4.87
2018-06-08T02:17:34.445Z,4.77
2018-06-08T02:20:02.888Z,5.23
2018-06-08T02:22:31.304Z,5.30
2018-06-08T02:24:59.647Z,4.87
2018-06-08T02:27:28.032Z,4.93
2018-06-08T02:29:56.505Z,4.67
2018-06-08T02:32:24.951Z,4.67
2018-06-08T02:34:53.419Z,4.53
2018-06-08T02:37:21.859Z,4.00
2018-06-08T02:39:50.191Z,3.53
2018-06-08T02:42:18.547Z,3.87
2018-06-08T02:44:46.926Z,3.77
2018-06-08T02:47:15.295Z,4.23
2018-06-08T02:49:44.097Z,4.03
2018-06-08T02:52:12.454Z,4.17
2018-06-08T02:54:40.998Z,4.33
2018-06-08T02:57:09.434Z,4.60
2018-06-08T02:59:37.940Z,4.00
2018-06-08T03:02:06.885Z,4.17
2018-06-08T03:04:35.342Z,4.27
2018-06-08T03:07:03.852Z,4.40
2018-06-08T03:09:32.244Z,4.40
2018-06-08T03:12:00.748Z,4.47
2018-06-08T03:14:29.160Z,4.47
2018-06-08T03:16:57.596Z,3.77
2018-06-08T03:19:25.967Z,3.87
2018-06-08T03:21:54.353Z,4.70
2018-06-08T03:24:22.779Z,5.73
2018-06-08T03:26:51.144Z,4.60
2018-06-08T03:29:19.662Z,4.30
2018-06-08T03:31:48.141Z,4.30
2018-06-08T03:34:16.580Z,4.50
2018-06-08T03:36:45.175Z,4.87
2018-06-08T03:39:13.644Z,4.77
2018-06-08T03:41:42.110Z,4.60
2018-06-08T03:44:10.737Z,4.70
2018-06-08T03:46:39.198Z,4.33
2018-06-08T03:49:07.653Z,3.63
2018-06-08T03:51:36.112Z,4.53
2018-06-08T03:54:04.736Z,4.50
2018-06-08T03:56:33.171Z,5.60
2018-06-08T03:59:02.815Z,4.40
2018-06-08T04:01:31.286Z,4.73
2018-06-08T04:04:05.216Z,4.53
2018-06-08T04:06:33.773Z,5.03
2018-06-08T04:09:02.186Z,5.30
2018-06-08T04:11:30.600Z,4.63
2018-06-08T04:13:59.340Z,5.10
2018-06-08T04:16:27.822Z,4.77
2018-06-08T04:18:56.219Z,4.70
2018-06-08T04:21:24.589Z,5.23
2018-06-08T04:23:53.127Z,5.37
2018-06-08T04:26:21.443Z,5.40
2018-06-08T04:28:50.001Z,5.20
2018-06-08T04:31:18.388Z,5.07
2018-06-08T04:33:47.103Z,6.63
2018-06-08T04:36:15.631Z,5.10
2018-06-08T04:38:44.089Z,5.33
2018-06-08T04:41:12.652Z,5.70
2018-06-08T04:43:41.140Z,5.63
2018-06-08T04:46:09.987Z,4.43
2018-06-08T04:48:38.442Z,5.57
2018-06-08T04:51:06.848Z,5.70
2018-06-08T04:53:35.263Z,5.20
2018-06-08T04:56:03.748Z,4.77
2018-06-08T04:58:32.191Z,5.73
2018-06-08T05:01:00.689Z,5.20
2018-06-08T05:03:29.046Z,5.63
2018-06-08T05:05:57.379Z,5.77
2018-06-08T05:08:25.811Z,6.23
2018-06-08T05:10:54.572Z,5.43
2018-06-08T05:13:22.977Z,5.30
2018-06-08T05:15:51.399Z,6.13
2018-06-08T05:18:19.794Z,5.33
2018-06-08T05:20:48.882Z,6.13
2018-06-08T05:23:17.284Z,6.47
2018-06-08T05:25:45.846Z,6.50
2018-06-08T05:28:14.523Z,5.07
2018-06-08T05:30:44.002Z,5.50
2018-06-08T05:33:12.498Z,6.10
2018-06-08T05:35:41.171Z,6.23
2018-06-08T05:38:09.735Z,5.97
2018-06-08T05:40:38.223Z,6.47
2018-06-08T05:43:08.877Z,5.43
2018-06-08T05:45:37.314Z,5.80
2018-06-08T05:48:05.749Z,6.20
2018-06-08T05:50:34.124Z,6.53
2018-06-08T05:53:04.108Z,5.43
2018-06-08T05:55:34.352Z,6.57
2018-06-08T05:58:05.306Z,6.83
2018-06-08T06:00:34.045Z,7.10
2018-06-08T06:03:05.101Z,6.63
2018-06-08T06:05:34.075Z,7.17
2018-06-08T06:08:04.320Z,7.60
2018-06-08T06:10:34.928Z,8.10
2018-06-08T06:13:05.413Z,8.13
2018-06-08T06:15:35.823Z,8.13
2018-06-08T06:18:05.303Z,8.37
2018-06-08T06:20:34.430Z,8.37
2018-06-08T06:23:05.082Z,8.37
2018-06-08T06:25:35.647Z,6.97
2018-06-08T06:28:07.465Z,7.00
2018-06-08T06:30:35.994Z,7.50
2018-06-08T06:33:04.440Z,6.67
2018-06-08T06:35:32.814Z,7.23
2018-06-08T06:38:01.737Z,7.80
2018-06-08T06:40:38.803Z,6.70
2018-06-08T06:43:08.294Z,7.93
2018-06-08T06:45:36.755Z,7.47
2018-06-08T06:48:05.271Z,8.00
2018-06-08T06:50:33.615Z,7.73
2018-06-08T06:53:02.096Z,7.30
2018-06-08T06:55:30.600Z,7.53
2018-06-08T06:57:59.784Z,7.03
2018-06-08T07:00:28.168Z,6.67
2018-06-08T07:02:56.551Z,6.93
2018-06-08T07:05:24.868Z,7.33
2018-06-08T07:07:53.875Z,7.33
2018-06-08T07:10:22.228Z,7.00
2018-06-08T07:12:51.018Z,6.87
2018-06-08T07:15:19.377Z,6.27
2018-06-08T07:17:48.009Z,6.73
2018-06-08T07:20:16.504Z,6.30
2018-06-08T07:22:44.960Z,5.60
2018-06-08T07:25:13.507Z,6.77
2018-06-08T07:27:42.024Z,6.27
2018-06-08T07:30:10.416Z,6.57
2018-06-08T07:32:39.195Z,5.93
2018-06-08T07:35:07.757Z,7.07
2018-06-08T07:37:36.131Z,6.87
2018-06-08T07:40:04.673Z,6.67
2018-06-08T07:42:32.989Z,5.90
2018-06-08T07:45:01.392Z,4.97
2018-06-08T07:47:29.802Z,4.73
2018-06-08T07:49:58.986Z,4.87
2018-06-08T07:52:28.838Z,5.40
2018-06-08T07:54:57.394Z,5.90
2018-06-08T07:57:25.833Z,6.07
2018-06-08T07:59:55.218Z,5.83
2018-06-08T08:02:23.814Z,5.53
2018-06-08T08:09:52.666Z,5.10
2018-06-08T08:12:21.359Z,4.60
2018-06-08T08:14:50.262Z,4.90
2018-06-08T08:17:19.141Z,5.57
2018-06-08T08:19:47.438Z,5.90
2018-06-08T08:22:15.872Z,5.70
2018-06-08T08:24:44.244Z,5.63
2018-06-08T08:27:12.803Z,5.83
2018-06-08T08:29:41.499Z,6.10
2018-06-08T08:32:10.214Z,5.10
2018-06-08T08:34:38.705Z,4.87
2018-06-08T08:37:07.240Z,5.70
2018-06-08T08:39:35.683Z,5.17
2018-06-08T08:42:04.305Z,5.20
2018-06-08T08:44:32.702Z,5.43
2018-06-08T08:47:01.144Z,5.57
2018-06-08T08:49:29.498Z,5.70
2018-06-08T08:51:58.257Z,5.60
2018-06-08T08:54:26.673Z,6.53
2018-06-08T08:56:55.292Z,7.00
2018-06-08T08:59:23.684Z,6.30
2018-06-08T09:01:52.079Z,7.40
2018-06-08T09:04:20.509Z,6.77
2018-06-08T09:06:49.087Z,6.03
2018-06-08T09:09:17.653Z,7.57
2018-06-08T09:11:56.254Z,7.13
2018-06-08T09:14:43.384Z,7.63
2018-06-08T09:17:16.203Z,7.27
2018-06-08T09:19:44.937Z,6.60
2018-06-08T09:22:13.417Z,6.53
2018-06-08T09:24:43.533Z,5.73
2018-06-08T09:27:11.987Z,7.23
2018-06-08T09:29:40.864Z,7.00
2018-06-08T09:32:09.581Z,7.90
2018-06-08T09:34:38.134Z,6.87
2018-06-08T09:37:06.617Z,7.20
2018-06-08T09:39:35.202Z,6.53
2018-06-08T09:42:03.724Z,5.13
2018-06-08T09:44:32.329Z,4.60
2018-06-08T09:47:00.733Z,4.75
2018-06-08T09:49:29.468Z,5.17
2018-06-08T09:51:57.824Z,4.97
2018-06-08T09:54:28.555Z,5.25
2018-06-08T09:56:57.005Z,4.75
2018-06-08T09:59:26.160Z,4.50
2018-06-08T10:01:54.754Z,4.83
2018-06-08T10:04:24.084Z,4.83
2018-06-08T10:06:52.711Z,4.33
2018-06-08T10:09:21.332Z,4.47
2018-06-08T10:11:49.730Z,4.95
2018-06-08T10:14:18.184Z,4.43
2018-06-08T10:16:46.739Z,4.90
2018-06-08T10:19:15.390Z,4.55
2018-06-08T10:21:44.044Z,4.90
2018-06-08T10:24:12.581Z,4.60
2018-06-08T10:26:41.066Z,4.00
2018-06-08T10:29:09.538Z,4.30
2018-06-08T10:31:38.428Z,4.87
2018-06-08T10:34:07.010Z,4.17
2018-06-08T10:36:35.478Z,4.97
2018-06-08T10:39:06.092Z,3.72
2018-06-08T10:41:34.531Z,3.90
2018-06-08T10:44:03.846Z,4.25
2018-06-08T10:46:32.981Z,4.22
2018-06-08T10:49:01.565Z,3.65
2018-06-08T10:51:30.129Z,3.92
2018-06-08T10:53:58.638Z,3.98
2018-06-08T10:56:27.098Z,3.80
2018-06-08T10:58:55.794Z,4.00
2018-06-08T11:01:25.165Z,3.60
2018-06-08T11:03:53.540Z,4.17
2018-06-08T11:06:22.222Z,3.30
2018-06-08T11:08:50.592Z,3.83
2018-06-08T11:11:19.167Z,3.60
2018-06-08T11:13:47.556Z,3.75
2018-06-08T11:16:16.387Z,3.75
2018-06-08T11:18:44.900Z,3.40
2018-06-08T11:21:14.057Z,3.30
2018-06-08T11:23:43.097Z,3.55
2018-06-08T11:26:11.638Z,3.22
2018-06-08T11:28:40.472Z,3.42
2018-06-08T11:31:10.854Z,3.05
2018-06-08T11:33:39.403Z,3.02
2018-06-08T11:36:08.261Z,3.62
2018-06-08T11:38:36.777Z,3.35
2018-06-08T11:41:05.426Z,3.40
2018-06-08T11:43:33.854Z,3.12
2018-06-08T11:46:02.345Z,2.98
2018-06-08T11:48:30.809Z,3.12
2018-06-08T11:50:59.529Z,3.05
2018-06-08T11:53:27.934Z,3.33
2018-06-08T11:55:56.822Z,3.20
2018-06-08T11:58:25.338Z,3.10
2018-06-08T12:00:53.708Z,3.17
2018-06-08T12:03:22.244Z,3.30
2018-06-08T12:05:50.822Z,3.15
2018-06-08T12:08:19.317Z,3.30
2018-06-08T12:10:47.719Z,3.20
2018-06-08T12:13:16.235Z,3.12
2018-06-08T12:15:44.691Z,3.30
2018-06-08T12:18:13.368Z,3.30
2018-06-08T12:20:41.965Z,3.17
2018-06-08T12:23:10.607Z,3.00
2018-06-08T12:25:39.049Z,3.25
2018-06-08T12:28:07.489Z,3.40
2018-06-08T12:30:36.495Z,3.22
2018-06-08T12:33:04.993Z,3.33
2018-06-08T12:35:33.573Z,2.75
2018-06-08T12:38:02.014Z,3.20
2018-06-08T12:40:30.514Z,2.90
2018-06-08T12:42:59.091Z,3.05
2018-06-08T12:45:27.548Z,2.90
2018-06-08T12:47:55.961Z,2.67
2018-06-08T12:50:24.354Z,2.52
2018-06-08T12:52:52.936Z,3.10
2018-06-08T12:55:21.315Z,3.02
2018-06-08T12:57:49.797Z,2.92
2018-06-08T13:00:18.271Z,2.47
2018-06-08T13:02:46.667Z,2.75
2018-06-08T13:05:15.216Z,3.50
2018-06-08T13:07:43.677Z,2.75
2018-06-08T13:10:12.315Z,3.47
2018-06-08T13:12:40.857Z,3.20
2018-06-08T13:15:09.387Z,3.02
2018-06-08T13:17:37.887Z,2.58
2018-06-08T13:20:06.340Z,2.80
2018-06-08T13:22:35.626Z,2.70
2018-06-08T13:25:04.251Z,2.62
2018-06-08T13:27:32.918Z,2.58
2018-06-08T13:30:01.750Z,3.52
2018-06-08T13:32:30.203Z,2.67
2018-06-08T13:34:58.630Z,2.62
2018-06-08T13:37:27.080Z,2.77
2018-06-08T13:39:55.533Z,2.60
2018-06-08T13:42:24.062Z,2.35
2018-06-08T13:44:52.408Z,2.70
2018-06-08T13:47:20.812Z,2.87
2018-06-08T13:49:49.283Z,2.47
2018-06-08T13:52:17.758Z,2.70
2018-06-08T13:54:46.477Z,2.55
2018-06-08T13:57:15.254Z,2.75
2018-06-08T13:59:43.891Z,2.35
2018-06-08T14:02:12.384Z,2.62
2018-06-08T14:04:40.916Z,2.65
2018-06-08T14:07:09.700Z,2.40
2018-06-08T14:09:38.333Z,2.30
2018-06-08T14:12:06.818Z,2.45
2018-06-08T14:14:35.246Z,2.33
2018-06-08T14:17:04.290Z,2.45
2018-06-08T14:19:32.920Z,2.50
2018-06-08T14:22:01.711Z,2.90
2018-06-08T14:24:30.253Z,2.92
2018-06-08T14:26:58.759Z,2.98
2018-06-08T14:29:27.211Z,2.87
2018-06-08T14:31:55.665Z,2.85
2018-06-08T14:34:24.196Z,4.03
2018-06-08T14:36:52.609Z,2.40
2018-06-08T14:39:21.040Z,3.03
2018-06-08T14:41:49.144Z,2.67
2018-06-08T14:44:17.556Z,2.87
2018-06-08T14:46:45.888Z,2.37
2018-06-08T14:49:14.323Z,2.58
2018-06-08T14:51:43.037Z,2.40
2018-06-08T14:54:11.403Z,2.90
2018-06-08T14:56:39.913Z,2.60
2018-06-08T14:59:08.327Z,2.87
2018-06-08T15:01:36.861Z,2.83
2018-06-08T15:04:05.427Z,2.83
2018-06-08T15:06:33.839Z,3.40
2018-06-08T15:09:02.620Z,2.83
2018-06-08T15:11:31.247Z,2.53
2018-06-08T15:13:59.738Z,2.57
2018-06-08T15:16:28.279Z,2.60
2018-06-08T15:18:56.619Z,2.90
2018-06-08T15:21:25.022Z,2.53
2018-06-08T15:23:53.584Z,3.07
2018-06-08T15:26:21.995Z,2.53
2018-06-08T15:28:50.445Z,2.23
2018-06-08T15:31:19.681Z,2.37
2018-06-08T15:33:48.278Z,2.67
2018-06-08T15:36:16.814Z,2.57
2018-06-08T15:38:48.138Z,3.45
2018-06-08T15:41:26.763Z,3.08
2018-06-08T15:43:55.545Z,3.12
2018-06-08T15:46:23.916Z,3.20
2018-06-08T15:48:52.320Z,3.52
2018-06-08T15:51:23.932Z,4.70
2018-06-08T15:53:52.293Z,3.30
2018-06-08T15:56:20.718Z,3.40
2018-06-08T15:58:49.669Z,3.40
2018-06-08T16:01:19.329Z,3.40
2018-06-08T16:03:47.836Z,3.57
2018-06-08T16:06:16.374Z,3.67
2018-06-08T16:08:45.560Z,3.47
2018-06-08T16:11:14.689Z,3.33
2018-06-08T16:13:44.461Z,3.93
2018-06-08T16:16:13.364Z,3.73
2018-06-08T16:18:41.917Z,3.93
2018-06-08T16:21:13.496Z,3.53
2018-06-08T16:23:41.961Z,3.67
2018-06-08T16:26:11.377Z,3.77
2018-06-08T16:28:39.923Z,3.50
2018-06-08T16:31:13.418Z,3.93
2018-06-08T16:33:42.345Z,3.57
2018-06-08T16:36:14.877Z,4.87
2018-06-08T16:38:43.453Z,4.33
2018-06-08T16:41:12.281Z,4.43
2018-06-08T16:43:40.959Z,3.57
2018-06-08T16:46:09.447Z,3.63
2018-06-08T16:48:37.947Z,3.90
2018-06-08T16:51:07.260Z,3.63
2018-06-08T16:53:35.684Z,4.30
2018-06-08T16:56:04.293Z,3.67
2018-06-08T16:58:32.886Z,3.57
2018-06-08T17:01:01.312Z,3.40
2018-06-08T17:03:29.817Z,3.03
2018-06-08T17:05:58.535Z,2.80
2018-06-08T17:08:29.939Z,3.07
2018-06-08T17:10:58.651Z,2.57
2018-06-08T17:13:27.141Z,2.37
2018-06-08T17:15:55.780Z,2.53
2018-06-08T17:18:24.423Z,2.67
2018-06-08T17:20:53.328Z,2.23
2018-06-08T17:23:21.743Z,2.27
2018-06-08T17:25:50.511Z,2.10
2018-06-08T17:28:19.209Z,2.03
2018-06-08T17:30:47.726Z,2.10
2018-06-08T17:33:20.703Z,2.53
2018-06-08T17:35:52.155Z,2.47
2018-06-08T17:38:20.633Z,2.40
2018-06-08T17:40:49.408Z,2.37
2018-06-08T17:43:18.331Z,2.70
2018-06-08T17:45:46.979Z,2.43
2018-06-08T17:48:15.548Z,2.43
2018-06-08T17:50:44.233Z,2.93
2018-06-08T17:53:12.805Z,2.93
2018-06-08T17:55:41.418Z,2.40
2018-06-08T17:58:10.240Z,2.87
2018-06-08T18:00:38.726Z,2.47
2018-06-08T18:03:07.118Z,2.97
2018-06-08T18:05:35.513Z,3.20
2018-06-08T18:08:04.007Z,3.50
2018-06-08T18:10:32.551Z,3.33
2018-06-08T18:13:01.137Z,3.33
2018-06-08T18:15:29.564Z,3.20
2018-06-08T18:17:58.163Z,3.37
2018-06-08T18:20:26.569Z,3.47
2018-06-08T18:22:55.427Z,3.27
2018-06-08T18:25:24.157Z,3.30
2018-06-08T18:27:53.913Z,2.93
2018-06-08T18:30:22.497Z,3.27
2018-06-08T18:32:51.332Z,3.07
2018-06-08T18:35:20.145Z,3.40
2018-06-08T18:37:48.612Z,3.87
2018-06-08T18:40:17.479Z,3.43
2018-06-08T18:42:46.272Z,3.27
2018-06-08T18:45:16.013Z,3.70
2018-06-08T18:47:44.612Z,3.60
2018-06-08T18:50:12.998Z,3.47
2018-06-08T18:52:41.491Z,3.93
2018-06-08T18:55:10.062Z,3.93
2018-06-08T18:57:38.419Z,3.83
2018-06-08T19:00:06.833Z,3.80
2018-06-08T19:02:35.181Z,3.47
2018-06-08T19:05:03.956Z,3.80
2018-06-08T19:07:32.313Z,3.80
2018-06-08T19:10:00.711Z,3.63
2018-06-08T19:12:29.004Z,4.17
2018-06-08T19:14:57.363Z,4.07
2018-06-08T19:17:25.807Z,3.57
2018-06-08T19:19:54.268Z,3.40
2018-06-08T19:22:22.651Z,3.07
2018-06-08T19:24:51.260Z,2.87
2018-06-08T19:27:19.716Z,2.97
2018-06-08T19:29:48.221Z,2.63
2018-06-08T19:32:16.580Z,3.10
2018-06-08T19:34:44.931Z,3.53
2018-06-08T19:37:13.531Z,3.30
2018-06-08T19:39:49.919Z,3.33
2018-06-08T19:42:18.440Z,2.60
2018-06-08T19:44:46.918Z,3.10
2018-06-08T19:47:15.620Z,3.87
2018-06-08T19:49:55.792Z,2.87
2018-06-08T19:52:24.472Z,3.07
2018-06-08T19:54:53.091Z,2.83
2018-06-08T19:57:21.777Z,2.80
2018-06-08T19:59:50.176Z,2.90
2018-06-08T20:02:18.837Z,3.17
2018-06-08T20:04:47.284Z,3.03
2018-06-08T20:07:16.552Z,3.13
2018-06-08T20:09:44.946Z,2.93
2018-06-08T20:12:14.765Z,3.10
2018-06-08T20:14:43.203Z,2.70
2018-06-08T20:17:11.674Z,3.07
2018-06-08T20:19:40.030Z,2.93
2018-06-08T20:22:08.430Z,3.03
2018-06-08T20:24:36.985Z,3.07
2018-06-08T20:27:05.588Z,2.97
2018-06-08T20:29:34.013Z,2.80
2018-06-08T20:32:03.019Z,2.90
2018-06-08T20:34:31.580Z,2.40
2018-06-08T20:36:59.983Z,3.27
2018-06-08T20:39:30.673Z,3.27
2018-06-08T20:41:59.147Z,9.00
2018-06-08T20:44:27.604Z,2.93
2018-06-08T20:46:55.953Z,3.20
2018-06-08T20:49:24.345Z,3.67
2018-06-08T20:51:52.715Z,3.00
2018-06-08T20:54:21.412Z,3.47
2018-06-08T20:57:00.947Z,3.00
2018-06-08T20:59:29.749Z,3.60
2018-06-08T21:01:58.249Z,2.83
2018-06-08T21:04:26.732Z,3.00
2018-06-08T21:06:55.236Z,3.27
2018-06-08T21:09:23.648Z,3.37
2018-06-08T21:11:53.091Z,2.83
2018-06-08T21:14:23.375Z,3.10
2018-06-08T21:16:51.814Z,3.60
2018-06-08T21:19:20.402Z,2.83
2018-06-08T21:21:48.898Z,4.20
2018-06-08T21:24:17.473Z,2.47
2018-06-08T21:26:45.996Z,3.07
2018-06-08T21:29:15.254Z,3.20
2018-06-08T21:31:43.733Z,3.53
2018-06-08T21:34:13.909Z,2.97
2018-06-08T21:36:42.885Z,2.77
2018-06-08T21:39:11.360Z,3.00
2018-06-08T21:41:39.959Z,3.00
2018-06-08T21:44:08.304Z,5.93
2018-06-08T21:46:36.647Z,2.93
2018-06-08T21:49:05.194Z,3.20
2018-06-08T21:51:33.595Z,3.07
2018-06-08T21:54:01.955Z,3.23
2018-06-08T21:56:30.284Z,3.70
2018-06-08T21:58:58.681Z,4.60
2018-06-08T22:01:27.108Z,3.17
2018-06-08T22:03:55.467Z,3.40
2018-06-08T22:06:23.794Z,4.40
2018-06-08T22:08:52.142Z,2.93
2018-06-08T22:11:20.795Z,2.90
2018-06-08T22:13:49.303Z,2.77
2018-06-08T22:16:17.897Z,3.23
2018-06-08T22:18:46.284Z,3.37
2018-06-08T22:21:14.850Z,3.03
2018-06-08T22:23:43.324Z,3.73
2018-06-08T22:26:11.851Z,3.20
2018-06-08T22:28:40.227Z,5.30
2018-06-08T22:31:08.580Z,3.80
2018-06-08T22:33:36.911Z,3.97
2018-06-08T22:36:05.347Z,4.23
2018-06-08T22:38:33.710Z,3.87
2018-06-08T22:41:02.074Z,3.80
2018-06-08T22:43:30.360Z,3.40
2018-06-08T22:45:58.639Z,4.00
2018-06-08T22:48:26.944Z,3.70
2018-06-08T22:50:55.425Z,4.03
2018-06-08T22:53:23.888Z,4.13
2018-06-08T22:55:52.314Z,3.90
2018-06-08T22:58:20.718Z,3.93
2018-06-08T23:00:49.181Z,4.27
2018-06-08T23:03:17.889Z,4.47
2018-06-08T23:05:46.425Z,4.23
2018-06-08T23:08:16.027Z,4.20
2018-06-08T23:10:44.388Z,4.40
2018-06-08T23:13:13.818Z,4.80
2018-06-08T23:15:42.277Z,4.43
2018-06-08T23:18:10.597Z,3.40
2018-06-08T23:20:39.095Z,4.47
2018-06-08T23:23:07.408Z,4.23
2018-06-08T23:25:35.729Z,4.23
2018-06-08T23:28:04.359Z,3.97
2018-06-08T23:30:32.688Z,4.10
2018-06-08T23:33:01.013Z,3.83
2018-06-08T23:35:29.338Z,6.47
2018-06-08T23:37:57.835Z,4.27
2018-06-08T23:40:26.200Z,3.93
2018-06-08T23:42:54.569Z,4.40
2018-06-08T23:45:23.364Z,4.40
2018-06-08T23:47:51.771Z,4.47
2018-06-08T23:50:20.292Z,4.50
2018-06-08T23:52:48.765Z,4.43
2018-06-08T23:55:17.261Z,4.67
2018-06-08T23:57:45.703Z,4.47
